createdAt,value
2022-09-07T00:01:12.650Z,6.75
2022-09-07T00:03:40.593Z,5.88
2022-09-07T00:06:12.362Z,8.32
2022-09-07T00:08:44.197Z,8.82
2022-09-07T00:11:16.292Z,8.43
2022-09-07T00:13:46.866Z,4.82
2022-09-07T00:16:18.297Z,5.82
2022-09-07T00:18:46.805Z,5.03
2022-09-07T00:21:17.555Z,5.88
2022-09-07T00:23:49.604Z,5.60
2022-09-07T00:26:20.662Z,5.97
2022-09-07T00:28:49.699Z,4.40
2022-09-07T00:31:20.502Z,6.32
2022-09-07T00:33:49.942Z,4.00
2022-09-07T00:36:18.655Z,2.80
2022-09-07T00:38:48.134Z,4.53
2022-09-07T00:41:17.904Z,3.45
2022-09-07T00:43:49.782Z,1.98
2022-09-07T00:46:20.243Z,2.83
2022-09-07T00:48:55.919Z,3.15
2022-09-07T00:51:33.506Z,1.55
2022-09-07T00:54:08.008Z,3.95
2022-09-07T00:56:40.520Z,2.33
2022-09-07T00:59:10.164Z,4.95
2022-09-07T01:01:40.041Z,2.83
2022-09-07T01:04:09.159Z,2.40
2022-09-07T01:06:39.972Z,2.25
2022-09-07T01:09:12.516Z,3.17
2022-09-07T01:11:41.211Z,3.50
2022-09-07T01:14:14.739Z,2.20
2022-09-07T01:17:00.355Z,4.38
2022-09-07T01:20:19.706Z,2.72
2022-09-07T01:23:34.322Z,3.40
2022-09-07T01:27:00.185Z,3.75
2022-09-07T01:29:36.730Z,4.00
2022-09-07T01:32:17.641Z,2.83
2022-09-07T01:34:52.935Z,9.15
2022-09-07T01:37:33.934Z,2.22
2022-09-07T01:40:10.760Z,6.57
2022-09-07T01:42:50.088Z,1.83
2022-09-07T01:45:25.359Z,4.15
2022-09-07T01:47:58.145Z,4.10
2022-09-07T01:50:34.747Z,3.58
2022-09-07T01:53:09.697Z,3.85
2022-09-07T01:55:43.837Z,2.42
2022-09-07T01:58:19.270Z,2.47
2022-09-07T02:00:56.196Z,2.75
2022-09-07T02:03:33.765Z,1.42
2022-09-07T02:06:15.170Z,3.00
2022-09-07T02:08:53.665Z,2.03
2022-09-07T02:11:27.918Z,3.33
2022-09-07T02:14:01.601Z,1.80
2022-09-07T02:16:33.471Z,1.98
2022-09-07T02:19:06.322Z,1.95
2022-09-07T02:21:39.159Z,4.45
2022-09-07T02:24:16.879Z,5.03
2022-09-07T02:26:50.634Z,1.92
2022-09-07T02:29:18.657Z,1.13
2022-09-07T02:31:48.139Z,2.28
2022-09-07T02:34:16.174Z,2.13
2022-09-07T02:36:50.728Z,2.35
2022-09-07T02:39:19.317Z,1.75
2022-09-07T02:41:47.881Z,2.45
2022-09-07T02:44:21.256Z,2.13
2022-09-07T02:47:23.960Z,3.67
2022-09-07T02:50:23.375Z,5.53
2022-09-07T02:53:11.738Z,2.53
2022-09-07T02:55:57.453Z,3.03
2022-09-07T02:58:40.357Z,2.00
2022-09-07T03:01:19.454Z,2.92
2022-09-07T03:04:03.746Z,1.50
2022-09-07T03:06:39.348Z,3.83
2022-09-07T03:09:13.838Z,5.05
2022-09-07T03:11:41.955Z,2.00
2022-09-07T03:14:15.405Z,1.77
2022-09-07T03:16:44.039Z,2.63
2022-09-07T03:19:13.283Z,3.28
2022-09-07T03:21:41.209Z,2.17
2022-09-07T03:24:09.700Z,2.40
2022-09-07T03:26:43.710Z,1.80
2022-09-07T03:29:11.705Z,1.55
2022-09-07T03:31:39.935Z,5.03
2022-09-07T03:34:08.153Z,1.42
2022-09-07T03:36:37.764Z,3.97
2022-09-07T03:39:07.027Z,5.25
2022-09-07T03:41:35.645Z,1.90
2022-09-07T03:44:05.867Z,3.60
2022-09-07T03:46:34.286Z,3.83
2022-09-07T03:49:02.475Z,1.83
2022-09-07T03:51:30.978Z,3.85
2022-09-07T03:54:00.567Z,2.38
2022-09-07T03:56:28.599Z,2.55
2022-09-07T03:58:56.826Z,2.88
2022-09-07T04:01:27.056Z,2.85
2022-09-07T04:04:02.199Z,3.03
2022-09-07T04:06:31.709Z,2.05
2022-09-07T04:09:05.001Z,1.75
2022-09-07T04:11:33.225Z,1.73
2022-09-07T04:14:01.545Z,2.13
2022-09-07T04:16:30.274Z,2.20
2022-09-07T04:18:59.086Z,2.65
2022-09-07T04:21:29.314Z,2.35
2022-09-07T04:23:57.967Z,3.92
2022-09-07T04:26:30.118Z,2.90
2022-09-07T04:28:58.915Z,2.50
2022-09-07T04:31:27.218Z,2.70
2022-09-07T04:33:56.366Z,2.10
2022-09-07T04:36:25.608Z,3.42
2022-09-07T04:38:58.121Z,5.00
2022-09-07T04:41:29.321Z,3.13
2022-09-07T04:43:59.682Z,3.25
2022-09-07T04:46:30.757Z,2.53
2022-09-07T04:49:01.147Z,3.08
2022-09-07T04:51:31.928Z,2.50
2022-09-07T04:54:02.868Z,3.20
2022-09-07T04:56:33.014Z,4.00
2022-09-07T04:59:02.696Z,3.50
2022-09-07T05:01:31.063Z,2.20
2022-09-07T05:04:01.289Z,2.63
2022-09-07T05:06:29.890Z,2.20
2022-09-07T05:08:59.842Z,3.85
2022-09-07T05:11:29.998Z,2.60
2022-09-07T05:14:00.478Z,4.10
2022-09-07T05:16:29.877Z,3.38
2022-09-07T05:19:01.164Z,3.53
2022-09-07T05:21:31.894Z,5.97
2022-09-07T05:24:01.567Z,3.75
2022-09-07T05:26:32.948Z,3.00
2022-09-07T05:31:54.610Z,3.15
2022-09-07T05:34:30.480Z,2.72
2022-09-07T05:36:59.260Z,3.13
2022-09-07T05:39:27.927Z,3.72
2022-09-07T05:41:56.219Z,4.72
2022-09-07T05:47:14.365Z,5.47
2022-09-07T05:49:42.493Z,2.67
2022-09-07T05:52:10.806Z,3.55
2022-09-07T05:54:38.769Z,4.22
2022-09-07T05:57:07.298Z,4.53
2022-09-07T05:59:36.955Z,4.05
2022-09-07T06:02:05.219Z,3.38
2022-09-07T06:04:33.611Z,4.03
2022-09-07T06:12:37.452Z,3.22
2022-09-07T06:15:08.677Z,4.13
2022-09-07T06:17:36.576Z,3.45
2022-09-07T06:20:05.696Z,8.02
2022-09-07T06:22:36.137Z,5.65
2022-09-07T06:25:04.286Z,4.85
2022-09-07T06:27:32.210Z,5.30
2022-09-07T06:30:00.163Z,4.18
2022-09-07T06:32:45.240Z,5.03
2022-09-07T06:35:14.745Z,5.18
2022-09-07T06:37:43.034Z,4.03
2022-09-07T06:40:12.672Z,3.83
2022-09-07T06:42:40.786Z,5.55
2022-09-07T06:45:10.899Z,5.65
2022-09-07T06:47:41.152Z,3.88
2022-09-07T06:50:10.857Z,4.32
2022-09-07T06:55:28.577Z,4.97
2022-09-07T06:57:56.590Z,5.90
2022-09-07T07:00:24.636Z,7.20
2022-09-07T07:02:54.027Z,5.22
2022-09-07T07:05:22.052Z,5.22
2022-09-07T07:07:50.009Z,3.35
2022-09-07T07:10:23.649Z,4.05
2022-09-07T07:12:56.595Z,4.78
2022-09-07T07:15:26.270Z,6.45
2022-09-07T07:17:59.073Z,3.70
2022-09-07T07:20:28.527Z,5.60
2022-09-07T07:22:56.597Z,4.47
2022-09-07T07:25:24.824Z,6.07
2022-09-07T07:27:52.783Z,4.50
2022-09-07T07:30:22.676Z,5.50
2022-09-07T07:32:50.598Z,5.80
2022-09-07T07:35:20.072Z,7.30
2022-09-07T07:37:47.997Z,4.65
2022-09-07T07:40:17.905Z,5.50
2022-09-07T07:42:48.713Z,6.03
2022-09-07T07:48:05.031Z,8.43
2022-09-07T07:50:34.726Z,5.22
2022-09-07T07:55:51.081Z,5.28
2022-09-07T07:58:19.404Z,7.10
2022-09-07T08:00:56.125Z,7.45
2022-09-07T08:03:26.170Z,11.77
2022-09-07T08:05:56.280Z,6.45
2022-09-07T08:08:25.203Z,6.22
2022-09-07T08:10:53.428Z,6.63
2022-09-07T08:13:22.065Z,7.10
2022-09-07T08:15:50.003Z,7.35
2022-09-07T08:18:18.887Z,6.72
2022-09-07T08:20:46.816Z,5.57
2022-09-07T08:23:16.022Z,9.45
2022-09-07T08:25:52.724Z,12.02
2022-09-07T08:28:21.545Z,8.18
2022-09-07T08:30:49.471Z,9.77
2022-09-07T08:33:17.662Z,9.57
2022-09-07T08:35:57.113Z,10.07
2022-09-07T08:38:27.198Z,10.60
2022-09-07T08:40:55.525Z,8.75
2022-09-07T08:43:39.389Z,9.85
2022-09-07T08:46:20.784Z,12.98
2022-09-07T08:48:49.710Z,12.25
2022-09-07T08:51:26.749Z,11.68
2022-09-07T08:53:56.102Z,11.18
2022-09-07T08:56:33.756Z,10.15
2022-09-07T08:59:14.579Z,16.52
2022-09-07T09:02:27.103Z,11.65
2022-09-07T09:04:33.044Z,11.50
2022-09-07T09:07:16.451Z,12.32
2022-09-07T09:10:16.023Z,10.93
2022-09-07T09:13:10.693Z,12.43
2022-09-07T09:15:53.697Z,12.00
2022-09-07T09:18:57.488Z,14.82
2022-09-07T09:21:26.959Z,13.57
2022-09-07T09:24:02.776Z,15.43
2022-09-07T09:26:35.327Z,13.50
2022-09-07T09:29:15.070Z,15.13
2022-09-07T09:31:43.224Z,14.88
2022-09-07T09:34:15.374Z,12.60
2022-09-07T09:36:47.573Z,13.75
2022-09-07T09:39:31.725Z,14.10
2022-09-07T09:42:16.808Z,13.30
2022-09-07T09:44:45.764Z,15.45
2022-09-07T09:47:31.061Z,16.67
2022-09-07T09:50:02.864Z,15.90
2022-09-07T09:52:45.058Z,21.65
2022-09-07T09:55:35.146Z,19.67
2022-09-07T10:03:58.429Z,13.23
2022-09-07T10:06:29.505Z,15.02
2022-09-07T10:08:59.837Z,16.05
2022-09-07T10:14:37.329Z,11.32
2022-09-07T10:17:22.238Z,12.80
2022-09-07T10:19:50.438Z,12.70
2022-09-07T10:22:31.894Z,13.95
2022-09-07T10:25:01.098Z,10.15
2022-09-07T10:27:40.698Z,13.23
2022-09-07T10:30:17.426Z,13.27
2022-09-07T10:33:03.878Z,12.77
2022-09-07T10:35:37.664Z,13.23
2022-09-07T10:38:29.228Z,11.00
2022-09-07T10:41:05.735Z,11.38
2022-09-07T10:43:44.250Z,10.77
2022-09-07T10:49:29.646Z,10.10
2022-09-07T10:52:07.507Z,10.68
2022-09-07T10:54:49.819Z,9.50
2022-09-07T10:57:49.039Z,6.32
2022-09-07T11:00:20.389Z,5.20
2022-09-07T11:03:30.114Z,5.95
2022-09-07T11:06:14.965Z,4.65
2022-09-07T11:09:17.382Z,4.55
2022-09-07T11:12:02.464Z,5.88
2022-09-07T11:14:39.712Z,5.90
2022-09-07T11:17:16.727Z,4.32
2022-09-07T11:19:54.827Z,2.78
2022-09-07T11:22:34.055Z,2.97
2022-09-07T11:25:30.817Z,6.15
2022-09-07T11:28:05.515Z,4.43
2022-09-07T11:30:38.146Z,4.03
2022-09-07T11:33:17.678Z,3.50
2022-09-07T11:35:53.286Z,4.35
2022-09-07T11:38:31.234Z,3.83
2022-09-07T11:41:16.173Z,8.23
2022-09-07T11:43:47.934Z,4.75
2022-09-07T11:46:22.562Z,6.10
2022-09-07T11:48:57.555Z,7.57
2022-09-07T11:51:39.972Z,8.43
2022-09-07T11:54:29.903Z,8.10
2022-09-07T11:57:22.867Z,9.60
2022-09-07T12:00:03.769Z,6.97
2022-09-07T12:03:22.633Z,12.23
2022-09-07T12:06:38.476Z,7.43
2022-09-07T12:09:36.376Z,9.30
2022-09-07T12:12:52.871Z,7.78
2022-09-07T12:15:36.188Z,11.63
2022-09-07T12:18:27.803Z,12.85
2022-09-07T12:20:55.965Z,8.90
2022-09-07T12:23:30.480Z,12.63
2022-09-07T12:26:51.286Z,8.38
2022-09-07T12:29:24.778Z,9.50
2022-09-07T12:31:59.854Z,8.98
2022-09-07T12:34:55.454Z,9.70
2022-09-07T12:37:44.414Z,9.35
2022-09-07T12:41:00.165Z,10.77
2022-09-07T12:44:16.672Z,11.93
2022-09-07T12:46:53.110Z,8.48
2022-09-07T12:50:10.254Z,9.02
2022-09-07T12:53:25.060Z,8.93
2022-09-07T12:56:29.353Z,12.82
2022-09-07T12:59:27.397Z,13.63
2022-09-07T13:02:18.163Z,11.68
2022-09-07T13:05:04.203Z,9.60
2022-09-07T13:08:14.787Z,10.73
2022-09-07T13:10:44.107Z,10.70
2022-09-07T13:14:02.771Z,9.65
2022-09-07T13:17:15.921Z,9.75
2022-09-07T13:20:20.380Z,9.13
2022-09-07T13:23:22.177Z,8.15
2022-09-07T13:25:54.696Z,8.43
2022-09-07T13:28:41.441Z,9.30
2022-09-07T13:31:40.044Z,9.18
2022-09-07T13:34:55.759Z,8.23
2022-09-07T13:37:27.159Z,7.10
2022-09-07T13:39:58.402Z,9.20
2022-09-07T13:42:31.044Z,9.38
2022-09-07T13:45:01.627Z,10.38
2022-09-07T13:47:49.350Z,9.68
2022-09-07T13:50:28.175Z,8.65
2022-09-07T13:53:22.185Z,8.15
2022-09-07T13:56:03.098Z,13.77
2022-09-07T13:58:37.030Z,10.65
2022-09-07T14:01:15.883Z,14.02
2022-09-07T14:03:51.600Z,8.95
2022-09-07T14:06:34.780Z,9.05
2022-09-07T14:09:06.937Z,8.25
2022-09-07T14:11:44.501Z,10.00
2022-09-07T14:14:19.247Z,9.75
2022-09-07T14:16:50.800Z,9.93
2022-09-07T14:19:24.221Z,9.48
2022-09-07T14:22:01.877Z,9.05
2022-09-07T14:24:36.689Z,14.20
2022-09-07T14:27:06.671Z,8.93
2022-09-07T14:29:37.077Z,9.95
2022-09-07T14:32:14.241Z,9.68
2022-09-07T14:34:45.515Z,9.65
2022-09-07T14:37:17.120Z,10.98
2022-09-07T14:39:49.811Z,12.23
2022-09-07T14:42:23.093Z,8.93
2022-09-07T14:44:57.748Z,8.95
2022-09-07T14:47:29.750Z,10.68
2022-09-07T14:50:05.603Z,10.57
2022-09-07T14:52:42.992Z,9.73
2022-09-07T14:55:32.244Z,11.40
2022-09-07T14:58:12.312Z,13.57
2022-09-07T15:00:42.580Z,9.55
2022-09-07T15:03:29.054Z,13.07
2022-09-07T15:06:01.149Z,9.93
2022-09-07T15:08:41.589Z,8.35
2022-09-07T15:14:09.488Z,8.48
2022-09-07T15:16:42.455Z,8.05
2022-09-07T15:19:32.540Z,8.13
2022-09-07T15:22:13.693Z,9.13
2022-09-07T15:24:41.630Z,8.93
2022-09-07T15:27:20.244Z,10.07
2022-09-07T15:29:48.219Z,11.48
2022-09-07T15:32:18.208Z,9.63
2022-09-07T15:34:46.426Z,9.57
2022-09-07T15:40:04.663Z,8.52
2022-09-07T15:45:20.634Z,7.40
2022-09-07T15:47:53.018Z,9.48
2022-09-07T15:50:23.243Z,8.38
2022-09-07T15:52:52.639Z,8.07
2022-09-07T15:55:20.547Z,6.88
2022-09-07T15:57:51.190Z,7.80
2022-09-07T16:00:21.347Z,7.00
2022-09-07T16:03:06.384Z,7.25
2022-09-07T16:05:35.401Z,6.47
2022-09-07T16:10:54.088Z,7.35
2022-09-07T16:13:23.873Z,6.32
2022-09-07T16:15:52.017Z,6.40
2022-09-07T16:18:20.344Z,7.40
2022-09-07T16:20:52.552Z,5.78
2022-09-07T16:23:22.154Z,6.07
2022-09-07T16:25:57.855Z,7.35
2022-09-07T16:28:27.456Z,6.45
2022-09-07T16:30:56.281Z,7.50
2022-09-07T16:33:31.579Z,7.18
2022-09-07T16:36:09.179Z,7.03
2022-09-07T16:38:47.296Z,5.80
2022-09-07T16:41:17.976Z,6.35
2022-09-07T16:43:46.232Z,6.10
2022-09-07T16:46:17.436Z,5.30
2022-09-07T16:48:45.976Z,7.43
2022-09-07T16:51:18.671Z,6.22
2022-09-07T16:53:49.920Z,5.82
2022-09-07T16:56:21.106Z,6.05
2022-09-07T16:58:51.522Z,5.45
2022-09-07T17:01:22.225Z,5.05
2022-09-07T17:03:51.515Z,9.15
2022-09-07T17:06:23.477Z,5.75
2022-09-07T17:08:53.971Z,5.40
2022-09-07T17:11:24.955Z,5.68
2022-09-07T17:13:54.134Z,5.65
2022-09-07T17:16:24.534Z,6.78
2022-09-07T17:21:41.757Z,7.07
2022-09-07T17:24:12.737Z,5.13
2022-09-07T17:26:42.473Z,6.07
2022-09-07T17:29:13.130Z,6.85
2022-09-07T17:34:30.053Z,4.68
2022-09-07T17:37:00.526Z,5.47
2022-09-07T17:39:30.536Z,6.13
2022-09-07T17:41:58.501Z,4.80
2022-09-07T17:44:38.093Z,8.73
2022-09-07T17:47:12.748Z,6.10
2022-09-07T17:49:42.897Z,5.80
2022-09-07T17:52:10.761Z,4.30
2022-09-07T17:54:40.470Z,5.05
2022-09-07T17:57:08.390Z,6.20
2022-09-07T18:02:24.188Z,4.95
2022-09-07T18:04:52.130Z,6.47
2022-09-07T18:07:20.140Z,4.65
2022-09-07T18:09:49.388Z,5.15
2022-09-07T18:12:17.251Z,5.13
2022-09-07T18:14:45.158Z,5.15
2022-09-07T18:17:13.130Z,5.07
2022-09-07T18:19:41.243Z,4.90
2022-09-07T18:22:09.313Z,4.47
2022-09-07T18:24:37.306Z,5.65
2022-09-07T18:27:07.994Z,5.07
2022-09-07T18:29:36.061Z,4.63
2022-09-07T18:32:09.512Z,5.82
2022-09-07T18:34:41.031Z,5.32
2022-09-07T18:37:11.892Z,4.43
2022-09-07T18:39:40.911Z,4.88
2022-09-07T18:42:11.062Z,5.03
2022-09-07T18:47:29.418Z,5.18
2022-09-07T18:49:58.572Z,5.57
2022-09-07T18:55:10.383Z,5.45
2022-09-07T18:57:39.839Z,5.57
2022-09-07T19:00:10.888Z,5.75
2022-09-07T19:02:39.109Z,10.75
2022-09-07T19:07:56.679Z,9.52
2022-09-07T19:10:24.578Z,8.68
2022-09-07T19:12:53.837Z,7.68
2022-09-07T19:15:21.745Z,7.20
2022-09-07T19:17:49.681Z,6.70
2022-09-07T19:20:18.341Z,7.18
2022-09-07T19:22:46.375Z,9.85
2022-09-07T19:25:14.285Z,10.20
2022-09-07T19:27:42.330Z,7.43
2022-09-07T19:30:13.479Z,8.30
2022-09-07T19:32:41.383Z,8.82
2022-09-07T19:35:10.288Z,11.00
2022-09-07T19:37:38.273Z,9.98
2022-09-07T19:43:18.648Z,11.75
2022-09-07T19:45:47.847Z,12.80
2022-09-07T19:48:17.071Z,10.45
2022-09-07T19:50:46.766Z,11.25
2022-09-07T19:53:14.986Z,11.35
2022-09-07T19:55:44.451Z,10.93
2022-09-07T19:58:13.103Z,11.63
2022-09-07T20:00:41.792Z,11.77
2022-09-07T20:03:11.862Z,11.10
2022-09-07T20:05:40.594Z,10.98
2022-09-07T20:08:08.671Z,12.88
2022-09-07T20:10:37.161Z,12.52
2022-09-07T20:13:05.129Z,17.20
2022-09-07T20:15:33.225Z,17.55
2022-09-07T20:18:01.179Z,13.50
2022-09-07T20:20:34.321Z,12.43
2022-09-07T20:23:02.244Z,12.38
2022-09-07T20:25:30.542Z,13.07
2022-09-07T20:27:58.520Z,12.38
2022-09-07T20:30:27.362Z,11.05
2022-09-07T20:32:55.238Z,11.80
2022-09-07T20:35:23.128Z,13.38
2022-09-07T20:37:52.515Z,11.45
2022-09-07T20:40:20.625Z,11.73
2022-09-07T20:42:48.679Z,12.32
2022-09-07T20:45:16.644Z,15.00
2022-09-07T20:47:45.166Z,11.38
2022-09-07T20:50:13.106Z,14.30
2022-09-07T20:52:41.079Z,12.07
2022-09-07T20:55:11.009Z,13.77
2022-09-07T20:57:39.387Z,12.18
2022-09-07T21:00:08.874Z,15.57
2022-09-07T21:02:37.028Z,12.80
2022-09-07T21:05:05.654Z,12.85
2022-09-07T21:07:33.534Z,14.82
2022-09-07T21:10:06.475Z,11.93
2022-09-07T21:12:36.972Z,15.07
2022-09-07T21:16:02.565Z,11.38
2022-09-07T21:21:38.397Z,14.15
2022-09-07T21:38:12.661Z,13.02
2022-09-07T22:46:45.752Z,16.25
2022-09-07T23:11:18.481Z,15.60
2022-09-07T23:28:45.349Z,21.75
2022-09-07T23:37:16.391Z,17.92
2022-09-07T23:41:30.909Z,17.67
2022-09-07T23:57:11.160Z,17.17
